sensor_id;sensor_type;location;lat;lon;timestamp;P1;durP1;ratioP1;P2;durP2;ratioP2
1649;SDS011;822;53.670;8.676;2022-11-10T00:00:27;1.60;;;1.50;;
1649;SDS011;822;53.670;8.676;2022-11-10T00:03:00;0.97;;;0.97;;
1649;SDS011;822;53.670;8.676;2022-11-10T00:05:28;1.77;;;1.17;;
1649;SDS011;822;53.670;8.676;2022-11-10T00:07:55;1.40;;;1.30;;
1649;SDS011;822;53.670;8.676;2022-11-10T00:10:22;1.93;;;1.50;;
1649;SDS011;822;53.670;8.676;2022-11-10T00:12:49;1.00;;;0.90;;
1649;SDS011;822;53.670;8.676;2022-11-10T00:15:17;4.43;;;1.23;;
1649;SDS011;822;53.670;8.676;2022-11-10T00:18:03;1.73;;;1.30;;
1649;SDS011;822;53.670;8.676;2022-11-10T00:20:30;1.20;;;1.10;;
1649;SDS011;822;53.670;8.676;2022-11-10T00:22:57;1.00;;;1.00;;
1649;SDS011;822;53.670;8.676;2022-11-10T00:25:24;1.87;;;1.50;;
1649;SDS011;822;53.670;8.676;2022-11-10T00:27:51;1.23;;;1.13;;
1649;SDS011;822;53.670;8.676;2022-11-10T00:30:18;1.27;;;1.20;;
1649;SDS011;822;53.670;8.676;2022-11-10T00:32:45;6.43;;;1.27;;
1649;SDS011;822;53.670;8.676;2022-11-10T00:35:14;1.20;;;1.10;;
1649;SDS011;822;53.670;8.676;2022-11-10T00:37:41;1.10;;;1.00;;
1649;SDS011;822;53.670;8.676;2022-11-10T00:40:08;5.37;;;1.33;;
1649;SDS011;822;53.670;8.676;2022-11-10T00:42:35;0.93;;;0.90;;
1649;SDS011;822;53.670;8.676;2022-11-10T00:45:02;1.00;;;1.00;;
1649;SDS011;822;53.670;8.676;2022-11-10T00:47:30;0.90;;;0.90;;
1649;SDS011;822;53.670;8.676;2022-11-10T00:49:57;1.13;;;0.90;;
1649;SDS011;822;53.670;8.676;2022-11-10T00:52:25;1.77;;;1.37;;
1649;SDS011;822;53.670;8.676;2022-11-10T00:54:52;1.67;;;0.90;;
1649;SDS011;822;53.670;8.676;2022-11-10T00:57:18;1.80;;;1.10;;
1649;SDS011;822;53.670;8.676;2022-11-10T00:59:45;1.00;;;1.00;;
1649;SDS011;822;53.670;8.676;2022-11-10T01:02:15;1.30;;;1.20;;
1649;SDS011;822;53.670;8.676;2022-11-10T01:04:42;1.30;;;1.20;;
1649;SDS011;822;53.670;8.676;2022-11-10T01:07:08;1.50;;;1.40;;
1649;SDS011;822;53.670;8.676;2022-11-10T01:09:37;0.70;;;0.70;;
1649;SDS011;822;53.670;8.676;2022-11-10T01:12:04;0.73;;;0.73;;
1649;SDS011;822;53.670;8.676;2022-11-10T01:14:31;1.37;;;1.00;;
1649;SDS011;822;53.670;8.676;2022-11-10T01:16:57;1.10;;;1.10;;
1649;SDS011;822;53.670;8.676;2022-11-10T01:19:24;1.40;;;1.00;;
1649;SDS011;822;53.670;8.676;2022-11-10T01:21:51;0.90;;;0.90;;
1649;SDS011;822;53.670;8.676;2022-11-10T01:24:18;1.20;;;1.20;;
1649;SDS011;822;53.670;8.676;2022-11-10T01:26:48;1.40;;;1.30;;
1649;SDS011;822;53.670;8.676;2022-11-10T01:29:14;2.10;;;1.10;;
1649;SDS011;822;53.670;8.676;2022-11-10T01:31:41;1.50;;;1.03;;
1649;SDS011;822;53.670;8.676;2022-11-10T01:34:08;1.40;;;1.30;;
1649;SDS011;822;53.670;8.676;2022-11-10T01:36:35;1.40;;;1.30;;
1649;SDS011;822;53.670;8.676;2022-11-10T01:39:02;1.80;;;1.47;;
1649;SDS011;822;53.670;8.676;2022-11-10T01:41:29;1.60;;;1.37;;
1649;SDS011;822;53.670;8.676;2022-11-10T01:46:49;1.20;;;0.97;;
1649;SDS011;822;53.670;8.676;2022-11-10T01:49:18;1.50;;;1.40;;
1649;SDS011;822;53.670;8.676;2022-11-10T01:51:53;1.40;;;1.20;;
1649;SDS011;822;53.670;8.676;2022-11-10T01:54:23;3.77;;;1.10;;
1649;SDS011;822;53.670;8.676;2022-11-10T01:56:52;3.17;;;0.93;;
1649;SDS011;822;53.670;8.676;2022-11-10T01:59:21;1.23;;;0.90;;
1649;SDS011;822;53.670;8.676;2022-11-10T02:01:52;1.10;;;1.10;;
1649;SDS011;822;53.670;8.676;2022-11-10T02:04:20;2.17;;;1.33;;
1649;SDS011;822;53.670;8.676;2022-11-10T02:06:47;2.13;;;1.10;;
1649;SDS011;822;53.670;8.676;2022-11-10T02:09:15;0.80;;;0.73;;
1649;SDS011;822;53.670;8.676;2022-11-10T02:11:42;1.53;;;1.43;;
1649;SDS011;822;53.670;8.676;2022-11-10T02:14:09;0.80;;;0.80;;
1649;SDS011;822;53.670;8.676;2022-11-10T02:16:37;1.93;;;1.10;;
1649;SDS011;822;53.670;8.676;2022-11-10T02:19:16;1.07;;;1.07;;
1649;SDS011;822;53.670;8.676;2022-11-10T02:21:45;3.00;;;0.93;;
1649;SDS011;822;53.670;8.676;2022-11-10T02:24:12;0.97;;;0.97;;
1649;SDS011;822;53.670;8.676;2022-11-10T02:26:40;3.80;;;1.13;;
1649;SDS011;822;53.670;8.676;2022-11-10T02:29:09;0.77;;;0.73;;
1649;SDS011;822;53.670;8.676;2022-11-10T02:31:39;1.27;;;1.17;;
1649;SDS011;822;53.670;8.676;2022-11-10T02:34:06;4.10;;;1.17;;
1649;SDS011;822;53.670;8.676;2022-11-10T02:36:33;1.20;;;1.03;;
1649;SDS011;822;53.670;8.676;2022-11-10T02:39:01;1.10;;;1.03;;
1649;SDS011;822;53.670;8.676;2022-11-10T02:41:28;0.90;;;0.90;;
1649;SDS011;822;53.670;8.676;2022-11-10T02:43:55;1.23;;;1.17;;
1649;SDS011;822;53.670;8.676;2022-11-10T02:46:26;4.67;;;1.10;;
1649;SDS011;822;53.670;8.676;2022-11-10T02:48:53;1.30;;;1.07;;
1649;SDS011;822;53.670;8.676;2022-11-10T02:51:19;1.13;;;1.13;;
1649;SDS011;822;53.670;8.676;2022-11-10T02:53:46;1.57;;;1.07;;
1649;SDS011;822;53.670;8.676;2022-11-10T02:56:15;1.60;;;1.50;;
1649;SDS011;822;53.670;8.676;2022-11-10T02:58:42;1.10;;;1.00;;
1649;SDS011;822;53.670;8.676;2022-11-10T03:01:09;1.30;;;1.20;;
1649;SDS011;822;53.670;8.676;2022-11-10T03:03:36;1.43;;;1.20;;
1649;SDS011;822;53.670;8.676;2022-11-10T03:06:03;2.00;;;1.80;;
1649;SDS011;822;53.670;8.676;2022-11-10T03:08:30;2.40;;;1.90;;
1649;SDS011;822;53.670;8.676;2022-11-10T03:10:56;5.40;;;1.93;;
1649;SDS011;822;53.670;8.676;2022-11-10T03:13:25;2.60;;;2.40;;
1649;SDS011;822;53.670;8.676;2022-11-10T03:15:52;2.77;;;2.50;;
1649;SDS011;822;53.670;8.676;2022-11-10T03:18:19;2.97;;;2.70;;
1649;SDS011;822;53.670;8.676;2022-11-10T03:20:46;2.53;;;2.33;;
1649;SDS011;822;53.670;8.676;2022-11-10T03:23:14;3.33;;;3.07;;
1649;SDS011;822;53.670;8.676;2022-11-10T03:25:41;3.43;;;3.13;;
1649;SDS011;822;53.670;8.676;2022-11-10T03:28:08;3.67;;;3.33;;
1649;SDS011;822;53.670;8.676;2022-11-10T03:30:36;3.33;;;3.03;;
1649;SDS011;822;53.670;8.676;2022-11-10T03:33:04;3.60;;;2.77;;
1649;SDS011;822;53.670;8.676;2022-11-10T03:35:31;3.93;;;3.63;;
1649;SDS011;822;53.670;8.676;2022-11-10T03:37:58;3.30;;;2.73;;
1649;SDS011;822;53.670;8.676;2022-11-10T03:40:25;2.40;;;2.20;;
1649;SDS011;822;53.670;8.676;2022-11-10T03:42:51;3.63;;;2.73;;
1649;SDS011;822;53.670;8.676;2022-11-10T03:45:18;3.33;;;2.80;;
1649;SDS011;822;53.670;8.676;2022-11-10T03:47:47;3.40;;;2.13;;
1649;SDS011;822;53.670;8.676;2022-11-10T03:50:15;4.73;;;2.63;;
1649;SDS011;822;53.670;8.676;2022-11-10T03:52:42;4.53;;;2.97;;
1649;SDS011;822;53.670;8.676;2022-11-10T03:55:10;2.60;;;2.40;;
1649;SDS011;822;53.670;8.676;2022-11-10T03:57:38;3.20;;;2.90;;
1649;SDS011;822;53.670;8.676;2022-11-10T04:00:06;2.60;;;2.40;;
1649;SDS011;822;53.670;8.676;2022-11-10T04:02:34;2.77;;;2.57;;
1649;SDS011;822;53.670;8.676;2022-11-10T04:05:02;3.20;;;2.90;;
1649;SDS011;822;53.670;8.676;2022-11-10T04:07:48;11.37;;;3.37;;
1649;SDS011;822;53.670;8.676;2022-11-10T04:10:34;2.73;;;2.53;;
1649;SDS011;822;53.670;8.676;2022-11-10T04:13:01;4.33;;;2.60;;
1649;SDS011;822;53.670;8.676;2022-11-10T04:15:45;3.40;;;3.10;;
1649;SDS011;822;53.670;8.676;2022-11-10T04:18:13;4.30;;;3.40;;
1649;SDS011;822;53.670;8.676;2022-11-10T04:20:49;4.27;;;3.73;;
1649;SDS011;822;53.670;8.676;2022-11-10T04:23:17;3.80;;;2.90;;
1649;SDS011;822;53.670;8.676;2022-11-10T04:25:53;6.00;;;2.87;;
1649;SDS011;822;53.670;8.676;2022-11-10T04:28:38;2.80;;;2.60;;
1649;SDS011;822;53.670;8.676;2022-11-10T04:31:05;4.67;;;3.30;;
1649;SDS011;822;53.670;8.676;2022-11-10T04:33:32;3.97;;;2.73;;
1649;SDS011;822;53.670;8.676;2022-11-10T04:36:00;5.63;;;3.17;;
1649;SDS011;822;53.670;8.676;2022-11-10T04:38:27;3.77;;;2.20;;
1649;SDS011;822;53.670;8.676;2022-11-10T04:40:54;5.20;;;3.63;;
1649;SDS011;822;53.670;8.676;2022-11-10T04:43:21;4.60;;;3.07;;
1649;SDS011;822;53.670;8.676;2022-11-10T04:45:48;3.30;;;2.97;;
1649;SDS011;822;53.670;8.676;2022-11-10T04:48:15;3.33;;;2.70;;
1649;SDS011;822;53.670;8.676;2022-11-10T04:50:41;2.37;;;1.80;;
1649;SDS011;822;53.670;8.676;2022-11-10T04:53:10;3.10;;;2.80;;
1649;SDS011;822;53.670;8.676;2022-11-10T04:55:37;2.80;;;2.60;;
1649;SDS011;822;53.670;8.676;2022-11-10T04:58:05;5.07;;;2.43;;
1649;SDS011;822;53.670;8.676;2022-11-10T05:00:32;2.90;;;2.60;;
1649;SDS011;822;53.670;8.676;2022-11-10T05:03:00;3.87;;;3.17;;
1649;SDS011;822;53.670;8.676;2022-11-10T05:05:27;4.87;;;3.03;;
1649;SDS011;822;53.670;8.676;2022-11-10T05:07:54;3.53;;;2.97;;
1649;SDS011;822;53.670;8.676;2022-11-10T05:10:23;6.17;;;3.60;;
1649;SDS011;822;53.670;8.676;2022-11-10T05:12:51;3.20;;;2.90;;
1649;SDS011;822;53.670;8.676;2022-11-10T05:15:18;10.00;;;3.60;;
1649;SDS011;822;53.670;8.676;2022-11-10T05:17:46;3.70;;;2.50;;
1649;SDS011;822;53.670;8.676;2022-11-10T05:20:14;5.77;;;3.37;;
1649;SDS011;822;53.670;8.676;2022-11-10T05:22:42;3.63;;;3.33;;
1649;SDS011;822;53.670;8.676;2022-11-10T05:25:10;5.30;;;3.53;;
1649;SDS011;822;53.670;8.676;2022-11-10T05:27:38;4.43;;;2.10;;
1649;SDS011;822;53.670;8.676;2022-11-10T05:30:06;3.87;;;3.23;;
1649;SDS011;822;53.670;8.676;2022-11-10T05:32:35;6.13;;;3.07;;
1649;SDS011;822;53.670;8.676;2022-11-10T05:35:02;4.07;;;3.17;;
1649;SDS011;822;53.670;8.676;2022-11-10T05:37:29;7.20;;;3.77;;
1649;SDS011;822;53.670;8.676;2022-11-10T05:39:58;4.40;;;2.57;;
1649;SDS011;822;53.670;8.676;2022-11-10T05:42:25;5.33;;;3.10;;
1649;SDS011;822;53.670;8.676;2022-11-10T05:44:54;2.80;;;2.60;;
1649;SDS011;822;53.670;8.676;2022-11-10T05:47:20;4.43;;;3.00;;
1649;SDS011;822;53.670;8.676;2022-11-10T05:49:47;2.90;;;2.13;;
1649;SDS011;822;53.670;8.676;2022-11-10T05:52:14;3.13;;;2.30;;
1649;SDS011;822;53.670;8.676;2022-11-10T05:54:41;3.90;;;2.43;;
1649;SDS011;822;53.670;8.676;2022-11-10T05:57:08;2.27;;;1.80;;
1649;SDS011;822;53.670;8.676;2022-11-10T05:59:34;2.67;;;2.10;;
1649;SDS011;822;53.670;8.676;2022-11-10T06:02:02;3.90;;;2.70;;
1649;SDS011;822;53.670;8.676;2022-11-10T06:04:29;4.10;;;2.57;;
1649;SDS011;822;53.670;8.676;2022-11-10T06:06:57;3.53;;;3.00;;
1649;SDS011;822;53.670;8.676;2022-11-10T06:09:27;4.10;;;2.90;;
1649;SDS011;822;53.670;8.676;2022-11-10T06:11:54;3.50;;;2.17;;
1649;SDS011;822;53.670;8.676;2022-11-10T06:14:21;8.30;;;3.30;;
1649;SDS011;822;53.670;8.676;2022-11-10T06:16:47;6.73;;;2.90;;
1649;SDS011;822;53.670;8.676;2022-11-10T06:19:16;2.60;;;2.20;;
1649;SDS011;822;53.670;8.676;2022-11-10T06:21:43;2.13;;;1.93;;
1649;SDS011;822;53.670;8.676;2022-11-10T06:24:09;6.07;;;3.30;;
1649;SDS011;822;53.670;8.676;2022-11-10T06:26:39;4.43;;;2.37;;
1649;SDS011;822;53.670;8.676;2022-11-10T06:29:06;4.07;;;3.27;;
1649;SDS011;822;53.670;8.676;2022-11-10T06:31:33;2.97;;;2.77;;
1649;SDS011;822;53.670;8.676;2022-11-10T06:34:00;2.60;;;2.47;;
1649;SDS011;822;53.670;8.676;2022-11-10T06:36:28;11.37;;;2.87;;
1649;SDS011;822;53.670;8.676;2022-11-10T06:38:55;3.33;;;2.70;;
1649;SDS011;822;53.670;8.676;2022-11-10T06:41:22;7.53;;;3.07;;
1649;SDS011;822;53.670;8.676;2022-11-10T06:43:48;3.20;;;2.60;;
1649;SDS011;822;53.670;8.676;2022-11-10T06:46:15;5.37;;;2.83;;
1649;SDS011;822;53.670;8.676;2022-11-10T06:48:42;5.10;;;3.27;;
1649;SDS011;822;53.670;8.676;2022-11-10T06:51:09;4.50;;;2.90;;
1649;SDS011;822;53.670;8.676;2022-11-10T06:53:37;4.87;;;3.10;;
1649;SDS011;822;53.670;8.676;2022-11-10T06:56:04;2.83;;;2.40;;
1649;SDS011;822;53.670;8.676;2022-11-10T06:58:32;7.30;;;3.00;;
1649;SDS011;822;53.670;8.676;2022-11-10T07:01:01;4.50;;;2.70;;
1649;SDS011;822;53.670;8.676;2022-11-10T07:03:28;3.43;;;2.87;;
1649;SDS011;822;53.670;8.676;2022-11-10T07:05:55;3.97;;;3.37;;
1649;SDS011;822;53.670;8.676;2022-11-10T07:08:29;3.47;;;3.03;;
1649;SDS011;822;53.670;8.676;2022-11-10T07:10:57;2.47;;;2.03;;
1649;SDS011;822;53.670;8.676;2022-11-10T07:13:24;2.70;;;2.50;;
1649;SDS011;822;53.670;8.676;2022-11-10T07:15:51;3.77;;;3.30;;
1649;SDS011;822;53.670;8.676;2022-11-10T07:18:18;4.63;;;3.57;;
1649;SDS011;822;53.670;8.676;2022-11-10T07:20:45;5.77;;;3.03;;
1649;SDS011;822;53.670;8.676;2022-11-10T07:23:12;3.33;;;2.93;;
1649;SDS011;822;53.670;8.676;2022-11-10T07:25:38;2.80;;;2.60;;
1649;SDS011;822;53.670;8.676;2022-11-10T07:28:07;3.87;;;2.80;;
1649;SDS011;822;53.670;8.676;2022-11-10T07:30:35;2.47;;;2.27;;
1649;SDS011;822;53.670;8.676;2022-11-10T07:33:04;4.63;;;4.23;;
1649;SDS011;822;53.670;8.676;2022-11-10T07:35:34;3.67;;;3.37;;
1649;SDS011;822;53.670;8.676;2022-11-10T07:38:03;8.43;;;3.00;;
1649;SDS011;822;53.670;8.676;2022-11-10T07:40:31;4.83;;;2.77;;
1649;SDS011;822;53.670;8.676;2022-11-10T07:42:58;4.33;;;2.43;;
1649;SDS011;822;53.670;8.676;2022-11-10T07:45:26;3.67;;;3.30;;
1649;SDS011;822;53.670;8.676;2022-11-10T07:47:56;9.67;;;3.73;;
1649;SDS011;822;53.670;8.676;2022-11-10T07:50:24;4.53;;;3.53;;
1649;SDS011;822;53.670;8.676;2022-11-10T07:52:51;10.83;;;3.83;;
1649;SDS011;822;53.670;8.676;2022-11-10T07:55:17;7.27;;;3.80;;
1649;SDS011;822;53.670;8.676;2022-11-10T07:57:45;6.27;;;3.53;;
1649;SDS011;822;53.670;8.676;2022-11-10T08:00:13;6.63;;;3.80;;
1649;SDS011;822;53.670;8.676;2022-11-10T08:02:42;5.43;;;4.67;;
1649;SDS011;822;53.670;8.676;2022-11-10T08:05:08;6.40;;;3.70;;
1649;SDS011;822;53.670;8.676;2022-11-10T08:07:35;6.90;;;4.20;;
1649;SDS011;822;53.670;8.676;2022-11-10T08:10:02;5.57;;;3.43;;
1649;SDS011;822;53.670;8.676;2022-11-10T08:12:30;6.93;;;4.30;;
1649;SDS011;822;53.670;8.676;2022-11-10T08:14:56;6.90;;;4.17;;
1649;SDS011;822;53.670;8.676;2022-11-10T08:17:23;6.07;;;4.67;;
1649;SDS011;822;53.670;8.676;2022-11-10T08:19:55;4.90;;;4.17;;
1649;SDS011;822;53.670;8.676;2022-11-10T08:22:21;4.40;;;3.90;;
1649;SDS011;822;53.670;8.676;2022-11-10T08:24:49;5.90;;;4.40;;
1649;SDS011;822;53.670;8.676;2022-11-10T08:27:15;5.20;;;4.27;;
1649;SDS011;822;53.670;8.676;2022-11-10T08:29:42;7.23;;;4.30;;
1649;SDS011;822;53.670;8.676;2022-11-10T08:32:09;6.97;;;4.80;;
1649;SDS011;822;53.670;8.676;2022-11-10T08:34:36;5.43;;;4.10;;
1649;SDS011;822;53.670;8.676;2022-11-10T08:37:04;7.67;;;4.00;;
1649;SDS011;822;53.670;8.676;2022-11-10T08:39:31;4.77;;;4.33;;
1649;SDS011;822;53.670;8.676;2022-11-10T08:41:58;5.67;;;3.87;;
1649;SDS011;822;53.670;8.676;2022-11-10T08:44:25;5.13;;;4.53;;
1649;SDS011;822;53.670;8.676;2022-11-10T08:46:52;6.20;;;5.43;;
1649;SDS011;822;53.670;8.676;2022-11-10T08:49:18;17.47;;;5.30;;
1649;SDS011;822;53.670;8.676;2022-11-10T08:51:45;8.30;;;5.43;;
1649;SDS011;822;53.670;8.676;2022-11-10T08:54:13;8.90;;;6.50;;
1649;SDS011;822;53.670;8.676;2022-11-10T08:56:40;6.37;;;5.30;;
1649;SDS011;822;53.670;8.676;2022-11-10T08:59:07;6.23;;;5.70;;
1649;SDS011;822;53.670;8.676;2022-11-10T09:01:34;4.67;;;4.13;;
1649;SDS011;822;53.670;8.676;2022-11-10T09:04:01;6.70;;;4.80;;
1649;SDS011;822;53.670;8.676;2022-11-10T09:06:28;8.30;;;5.20;;
1649;SDS011;822;53.670;8.676;2022-11-10T09:08:54;3.57;;;3.23;;
1649;SDS011;822;53.670;8.676;2022-11-10T09:11:23;4.30;;;3.50;;
1649;SDS011;822;53.670;8.676;2022-11-10T09:13:50;9.23;;;4.60;;
1649;SDS011;822;53.670;8.676;2022-11-10T09:16:16;5.00;;;3.80;;
1649;SDS011;822;53.670;8.676;2022-11-10T09:18:43;7.50;;;4.10;;
1649;SDS011;822;53.670;8.676;2022-11-10T09:21:10;5.73;;;3.93;;
1649;SDS011;822;53.670;8.676;2022-11-10T09:23:37;3.83;;;3.53;;
1649;SDS011;822;53.670;8.676;2022-11-10T09:26:04;8.17;;;4.20;;
1649;SDS011;822;53.670;8.676;2022-11-10T09:28:32;3.90;;;3.60;;
1649;SDS011;822;53.670;8.676;2022-11-10T09:30:59;3.80;;;3.50;;
1649;SDS011;822;53.670;8.676;2022-11-10T09:33:26;3.47;;;3.17;;
1649;SDS011;822;53.670;8.676;2022-11-10T09:35:55;3.17;;;2.87;;
1649;SDS011;822;53.670;8.676;2022-11-10T09:38:23;4.83;;;3.67;;
1649;SDS011;822;53.670;8.676;2022-11-10T09:40:54;4.37;;;3.07;;
1649;SDS011;822;53.670;8.676;2022-11-10T09:43:25;6.20;;;3.30;;
1649;SDS011;822;53.670;8.676;2022-11-10T09:45:56;6.53;;;3.13;;
1649;SDS011;822;53.670;8.676;2022-11-10T09:48:26;3.97;;;3.40;;
1649;SDS011;822;53.670;8.676;2022-11-10T09:50:55;8.20;;;3.57;;
1649;SDS011;822;53.670;8.676;2022-11-10T09:53:26;5.13;;;3.30;;
1649;SDS011;822;53.670;8.676;2022-11-10T09:55:55;5.97;;;3.63;;
1649;SDS011;822;53.670;8.676;2022-11-10T09:58:24;3.80;;;3.03;;
1649;SDS011;822;53.670;8.676;2022-11-10T10:00:58;4.37;;;3.97;;
1649;SDS011;822;53.670;8.676;2022-11-10T10:03:32;3.63;;;3.33;;
1649;SDS011;822;53.670;8.676;2022-11-10T10:06:02;2.77;;;2.57;;
1649;SDS011;822;53.670;8.676;2022-11-10T10:08:37;11.97;;;3.57;;
1649;SDS011;822;53.670;8.676;2022-11-10T10:11:11;4.40;;;3.67;;
1649;SDS011;822;53.670;8.676;2022-11-10T10:13:54;3.10;;;2.80;;
1649;SDS011;822;53.670;8.676;2022-11-10T10:16:41;3.67;;;3.37;;
1649;SDS011;822;53.670;8.676;2022-11-10T10:19:13;2.97;;;2.20;;
1649;SDS011;822;53.670;8.676;2022-11-10T10:21:48;6.63;;;3.00;;
1649;SDS011;822;53.670;8.676;2022-11-10T10:24:23;3.40;;;2.80;;
1649;SDS011;822;53.670;8.676;2022-11-10T10:26:57;3.90;;;3.20;;
1649;SDS011;822;53.670;8.676;2022-11-10T10:29:27;10.63;;;3.10;;
1649;SDS011;822;53.670;8.676;2022-11-10T10:31:57;5.57;;;2.20;;
1649;SDS011;822;53.670;8.676;2022-11-10T10:34:26;4.40;;;2.57;;
1649;SDS011;822;53.670;8.676;2022-11-10T10:36:54;2.50;;;2.30;;
1649;SDS011;822;53.670;8.676;2022-11-10T10:39:23;2.20;;;2.10;;
1649;SDS011;822;53.670;8.676;2022-11-10T10:41:54;2.13;;;1.73;;
1649;SDS011;822;53.670;8.676;2022-11-10T10:44:21;2.20;;;1.80;;
1649;SDS011;822;53.670;8.676;2022-11-10T10:46:49;2.13;;;1.60;;
1649;SDS011;822;53.670;8.676;2022-11-10T10:49:21;1.70;;;1.60;;
1649;SDS011;822;53.670;8.676;2022-11-10T10:51:49;2.13;;;1.20;;
1649;SDS011;822;53.670;8.676;2022-11-10T10:54:23;1.80;;;1.43;;
1649;SDS011;822;53.670;8.676;2022-11-10T10:57:00;3.70;;;2.27;;
1649;SDS011;822;53.670;8.676;2022-11-10T10:59:28;2.17;;;2.00;;
1649;SDS011;822;53.670;8.676;2022-11-10T11:01:55;2.10;;;1.30;;
1649;SDS011;822;53.670;8.676;2022-11-10T11:04:28;1.40;;;1.27;;
1649;SDS011;822;53.670;8.676;2022-11-10T11:06:58;1.27;;;1.17;;
1649;SDS011;822;53.670;8.676;2022-11-10T11:09:27;1.30;;;1.20;;
1649;SDS011;822;53.670;8.676;2022-11-10T11:11:59;1.93;;;1.70;;
1649;SDS011;822;53.670;8.676;2022-11-10T11:14:28;2.20;;;1.60;;
1649;SDS011;822;53.670;8.676;2022-11-10T11:16:56;2.13;;;1.27;;
1649;SDS011;822;53.670;8.676;2022-11-10T11:19:25;2.53;;;2.33;;
1649;SDS011;822;53.670;8.676;2022-11-10T11:22:01;4.73;;;1.53;;
1649;SDS011;822;53.670;8.676;2022-11-10T11:24:40;3.27;;;1.67;;
1649;SDS011;822;53.670;8.676;2022-11-10T11:27:11;2.13;;;1.80;;
1649;SDS011;822;53.670;8.676;2022-11-10T11:29:48;1.60;;;1.50;;
1649;SDS011;822;53.670;8.676;2022-11-10T11:32:23;7.80;;;2.33;;
1649;SDS011;822;53.670;8.676;2022-11-10T11:35:00;1.33;;;1.23;;
1649;SDS011;822;53.670;8.676;2022-11-10T11:37:32;2.03;;;1.80;;
1649;SDS011;822;53.670;8.676;2022-11-10T11:40:13;2.40;;;2.07;;
1649;SDS011;822;53.670;8.676;2022-11-10T11:42:48;2.50;;;1.77;;
1649;SDS011;822;53.670;8.676;2022-11-10T11:45:23;1.63;;;1.53;;
1649;SDS011;822;53.670;8.676;2022-11-10T11:47:58;4.50;;;2.40;;
1649;SDS011;822;53.670;8.676;2022-11-10T11:50:36;7.93;;;2.43;;
1649;SDS011;822;53.670;8.676;2022-11-10T11:53:09;2.20;;;2.10;;
1649;SDS011;822;53.670;8.676;2022-11-10T11:55:48;1.70;;;1.60;;
1649;SDS011;822;53.670;8.676;2022-11-10T11:58:23;1.73;;;1.63;;
1649;SDS011;822;53.670;8.676;2022-11-10T12:01:05;2.40;;;2.10;;
1649;SDS011;822;53.670;8.676;2022-11-10T12:03:47;2.20;;;1.80;;
1649;SDS011;822;53.670;8.676;2022-11-10T12:06:40;2.10;;;2.00;;
1649;SDS011;822;53.670;8.676;2022-11-10T12:09:15;2.70;;;1.57;;
1649;SDS011;822;53.670;8.676;2022-11-10T12:11:53;3.30;;;2.07;;
1649;SDS011;822;53.670;8.676;2022-11-10T12:14:43;3.13;;;1.73;;
1649;SDS011;822;53.670;8.676;2022-11-10T12:17:15;1.50;;;1.40;;
1649;SDS011;822;53.670;8.676;2022-11-10T12:19:49;4.47;;;2.50;;
1649;SDS011;822;53.670;8.676;2022-11-10T12:22:26;2.10;;;1.90;;
1649;SDS011;822;53.670;8.676;2022-11-10T12:25:02;1.67;;;1.47;;
1649;SDS011;822;53.670;8.676;2022-11-10T12:27:34;1.70;;;1.60;;
1649;SDS011;822;53.670;8.676;2022-11-10T12:30:05;1.90;;;1.60;;
1649;SDS011;822;53.670;8.676;2022-11-10T12:32:38;1.60;;;1.50;;
1649;SDS011;822;53.670;8.676;2022-11-10T12:35:10;5.10;;;2.83;;
1649;SDS011;822;53.670;8.676;2022-11-10T12:37:42;1.53;;;1.37;;
1649;SDS011;822;53.670;8.676;2022-11-10T12:40:14;2.53;;;1.90;;
1649;SDS011;822;53.670;8.676;2022-11-10T12:42:42;2.50;;;1.90;;
1649;SDS011;822;53.670;8.676;2022-11-10T12:45:16;5.87;;;1.90;;
1649;SDS011;822;53.670;8.676;2022-11-10T12:47:44;2.03;;;1.80;;
1649;SDS011;822;53.670;8.676;2022-11-10T12:50:23;2.70;;;1.80;;
1649;SDS011;822;53.670;8.676;2022-11-10T12:52:55;3.40;;;1.80;;
1649;SDS011;822;53.670;8.676;2022-11-10T12:55:28;1.70;;;1.60;;
1649;SDS011;822;53.670;8.676;2022-11-10T12:57:58;4.20;;;1.50;;
1649;SDS011;822;53.670;8.676;2022-11-10T13:00:26;2.10;;;1.30;;
1649;SDS011;822;53.670;8.676;2022-11-10T13:02:55;1.50;;;1.20;;
1649;SDS011;822;53.670;8.676;2022-11-10T13:08:06;1.63;;;1.53;;
1649;SDS011;822;53.670;8.676;2022-11-10T13:10:45;2.43;;;1.23;;
1649;SDS011;822;53.670;8.676;2022-11-10T13:13:18;3.50;;;1.50;;
1649;SDS011;822;53.670;8.676;2022-11-10T13:15:46;1.43;;;1.33;;
1649;SDS011;822;53.670;8.676;2022-11-10T13:18:29;5.43;;;1.87;;
1649;SDS011;822;53.670;8.676;2022-11-10T13:24:31;1.70;;;1.60;;
1649;SDS011;822;53.670;8.676;2022-11-10T13:26:59;1.83;;;1.73;;
1649;SDS011;822;53.670;8.676;2022-11-10T13:29:27;2.57;;;1.70;;
1649;SDS011;822;53.670;8.676;2022-11-10T13:31:57;2.13;;;1.70;;
1649;SDS011;822;53.670;8.676;2022-11-10T13:34:28;3.27;;;1.40;;
1649;SDS011;822;53.670;8.676;2022-11-10T13:36:59;1.20;;;1.17;;
1649;SDS011;822;53.670;8.676;2022-11-10T13:39:28;2.07;;;1.17;;
1649;SDS011;822;53.670;8.676;2022-11-10T13:42:01;0.97;;;0.97;;
1649;SDS011;822;53.670;8.676;2022-11-10T13:44:30;1.23;;;1.13;;
1649;SDS011;822;53.670;8.676;2022-11-10T13:47:03;1.63;;;1.53;;
1649;SDS011;822;53.670;8.676;2022-11-10T13:50:01;1.50;;;1.27;;
1649;SDS011;822;53.670;8.676;2022-11-10T13:52:34;3.03;;;1.40;;
1649;SDS011;822;53.670;8.676;2022-11-10T13:55:20;1.30;;;1.20;;
1649;SDS011;822;53.670;8.676;2022-11-10T13:57:59;3.13;;;1.60;;
1649;SDS011;822;53.670;8.676;2022-11-10T14:00:28;2.30;;;1.37;;
1649;SDS011;822;53.670;8.676;2022-11-10T14:02:57;1.27;;;1.10;;
1649;SDS011;822;53.670;8.676;2022-11-10T14:08:34;1.13;;;1.13;;
1649;SDS011;822;53.670;8.676;2022-11-10T14:11:20;1.73;;;1.47;;
1649;SDS011;822;53.670;8.676;2022-11-10T14:13:53;1.40;;;1.30;;
1649;SDS011;822;53.670;8.676;2022-11-10T14:16:23;3.53;;;1.60;;
1649;SDS011;822;53.670;8.676;2022-11-10T14:18:53;3.80;;;1.60;;
1649;SDS011;822;53.670;8.676;2022-11-10T14:21:25;1.23;;;0.97;;
1649;SDS011;822;53.670;8.676;2022-11-10T14:23:55;1.10;;;1.10;;
1649;SDS011;822;53.670;8.676;2022-11-10T14:26:27;2.10;;;1.10;;
1649;SDS011;822;53.670;8.676;2022-11-10T14:29:09;1.43;;;1.33;;
1649;SDS011;822;53.670;8.676;2022-11-10T14:31:45;1.73;;;1.50;;
1649;SDS011;822;53.670;8.676;2022-11-10T14:34:13;3.07;;;1.77;;
1649;SDS011;822;53.670;8.676;2022-11-10T14:36:48;2.10;;;2.00;;
1649;SDS011;822;53.670;8.676;2022-11-10T14:39:16;2.60;;;1.97;;
1649;SDS011;822;53.670;8.676;2022-11-10T14:41:47;1.30;;;1.20;;
1649;SDS011;822;53.670;8.676;2022-11-10T14:44:20;2.20;;;1.47;;
1649;SDS011;822;53.670;8.676;2022-11-10T14:46:49;2.30;;;1.80;;
1649;SDS011;822;53.670;8.676;2022-11-10T14:49:19;2.03;;;1.83;;
1649;SDS011;822;53.670;8.676;2022-11-10T14:51:47;4.00;;;2.17;;
1649;SDS011;822;53.670;8.676;2022-11-10T14:54:16;2.37;;;2.17;;
1649;SDS011;822;53.670;8.676;2022-11-10T14:56:44;1.13;;;1.07;;
1649;SDS011;822;53.670;8.676;2022-11-10T14:59:11;1.67;;;1.13;;
1649;SDS011;822;53.670;8.676;2022-11-10T15:01:46;1.10;;;1.10;;
1649;SDS011;822;53.670;8.676;2022-11-10T15:04:15;1.43;;;1.33;;
1649;SDS011;822;53.670;8.676;2022-11-10T15:06:42;1.90;;;0.97;;
1649;SDS011;822;53.670;8.676;2022-11-10T15:09:12;0.80;;;0.80;;
1649;SDS011;822;53.670;8.676;2022-11-10T15:11:47;1.30;;;1.20;;
1649;SDS011;822;53.670;8.676;2022-11-10T15:14:29;1.37;;;1.27;;
1649;SDS011;822;53.670;8.676;2022-11-10T15:17:02;1.70;;;0.87;;
1649;SDS011;822;53.670;8.676;2022-11-10T15:19:31;1.10;;;1.10;;
1649;SDS011;822;53.670;8.676;2022-11-10T15:22:12;1.57;;;1.17;;
1649;SDS011;822;53.670;8.676;2022-11-10T15:24:41;2.00;;;1.20;;
1649;SDS011;822;53.670;8.676;2022-11-10T15:27:11;1.23;;;1.13;;
1649;SDS011;822;53.670;8.676;2022-11-10T15:29:39;1.73;;;1.63;;
1649;SDS011;822;53.670;8.676;2022-11-10T15:32:13;1.90;;;1.30;;
1649;SDS011;822;53.670;8.676;2022-11-10T15:34:41;1.17;;;1.07;;
1649;SDS011;822;53.670;8.676;2022-11-10T15:37:22;3.63;;;1.47;;
1649;SDS011;822;53.670;8.676;2022-11-10T15:39:50;1.90;;;1.33;;
1649;SDS011;822;53.670;8.676;2022-11-10T15:42:18;3.17;;;1.10;;
1649;SDS011;822;53.670;8.676;2022-11-10T15:44:46;1.67;;;1.30;;
1649;SDS011;822;53.670;8.676;2022-11-10T15:47:15;1.70;;;1.60;;
1649;SDS011;822;53.670;8.676;2022-11-10T15:49:43;1.77;;;0.87;;
1649;SDS011;822;53.670;8.676;2022-11-10T15:52:12;2.70;;;1.13;;
1649;SDS011;822;53.670;8.676;2022-11-10T15:54:41;0.90;;;0.90;;
1649;SDS011;822;53.670;8.676;2022-11-10T15:57:09;3.33;;;0.97;;